createdAt,value
2017-08-17T00:01:49.473Z,100718.44
2017-08-17T00:04:17.055Z,100714.77
2017-08-17T00:06:44.499Z,100710.99
2017-08-17T00:09:11.980Z,100705.97
2017-08-17T00:11:39.442Z,100703.78
2017-08-17T00:14:06.936Z,100703.59
2017-08-17T00:16:34.422Z,100700.31
2017-08-17T00:19:01.984Z,100704.30
2017-08-17T00:21:29.536Z,100699.80
2017-08-17T00:23:56.983Z,100695.21
2017-08-17T00:26:24.448Z,100691.55
2017-08-17T00:28:51.895Z,100687.12
2017-08-17T00:31:19.456Z,100682.53
2017-08-17T00:33:46.907Z,100685.27
2017-08-17T00:36:15.252Z,100683.08
2017-08-17T00:38:42.712Z,100678.52
2017-08-17T00:41:10.183Z,100677.15
2017-08-17T00:43:37.661Z,100682.31
2017-08-17T00:46:05.125Z,100680.59
2017-08-17T00:48:32.673Z,100677.33
2017-08-17T00:51:00.138Z,100672.28
2017-08-17T00:53:27.687Z,100666.98
2017-08-17T00:55:55.164Z,100659.27
2017-08-17T00:58:22.616Z,100665.98
2017-08-17T01:00:50.155Z,100667.25
2017-08-17T01:03:17.613Z,100666.98
2017-08-17T01:05:45.095Z,100669.03
2017-08-17T01:08:12.543Z,100666.47
2017-08-17T01:10:40.040Z,100674.98
2017-08-17T01:13:07.548Z,100676.48
2017-08-17T01:15:35.036Z,100680.22
2017-08-17T01:18:02.512Z,100683.49
2017-08-17T01:20:30.015Z,100679.73
2017-08-17T01:22:57.488Z,100681.33
2017-08-17T01:25:25.039Z,100679.45
2017-08-17T01:27:52.531Z,100680.66
2017-08-17T01:30:20.048Z,100684.36
2017-08-17T01:32:47.603Z,100687.83
2017-08-17T01:35:15.517Z,100689.58
2017-08-17T01:37:43.019Z,100685.20
2017-08-17T01:40:10.473Z,100682.90
2017-08-17T01:42:38.059Z,100688.45
2017-08-17T01:45:05.511Z,100679.74
2017-08-17T01:47:33.070Z,100679.05
2017-08-17T01:50:00.619Z,100678.63
2017-08-17T01:52:28.176Z,100679.27
2017-08-17T01:54:55.664Z,100670.42
2017-08-17T01:57:23.124Z,100666.03
2017-08-17T01:59:50.655Z,100669.62
2017-08-17T02:02:18.204Z,100657.14
2017-08-17T02:07:05.675Z,100659.78
2017-08-17T02:09:33.153Z,100648.42
2017-08-17T02:12:00.660Z,100645.55
2017-08-17T02:14:28.123Z,100646.68
2017-08-17T02:16:55.603Z,100641.09
2017-08-17T02:19:23.135Z,100645.94
2017-08-17T02:21:50.592Z,100648.84
2017-08-17T02:24:18.064Z,100642.81
2017-08-17T02:26:45.611Z,100641.48
2017-08-17T02:29:13.162Z,100638.44
2017-08-17T02:31:40.656Z,100638.34
2017-08-17T02:34:08.184Z,100635.14
2017-08-17T02:36:35.736Z,100635.05
2017-08-17T02:39:03.203Z,100629.80
2017-08-17T02:41:30.751Z,100632.61
2017-08-17T02:43:58.208Z,100629.36
2017-08-17T02:46:25.766Z,100629.41
2017-08-17T02:48:53.228Z,100625.47
2017-08-17T02:51:20.694Z,100614.66
2017-08-17T02:53:48.143Z,100621.11
2017-08-17T02:56:15.611Z,100625.20
2017-08-17T02:58:43.069Z,100626.80
2017-08-17T03:01:10.535Z,100635.05
2017-08-17T03:03:37.984Z,100633.42
2017-08-17T03:06:05.472Z,100639.84
2017-08-17T03:08:32.976Z,100647.25
2017-08-17T03:11:00.421Z,100646.38
2017-08-17T03:13:27.888Z,100647.22
2017-08-17T03:15:55.447Z,100645.96
2017-08-17T03:18:22.915Z,100648.98
2017-08-17T03:20:50.371Z,100640.08
2017-08-17T03:23:17.848Z,100640.33
2017-08-17T03:25:45.376Z,100644.39
2017-08-17T03:28:12.849Z,100635.49
2017-08-17T03:30:40.292Z,100639.03
2017-08-17T03:33:07.759Z,100634.93
2017-08-17T03:35:35.212Z,100640.13
2017-08-17T03:38:02.675Z,100634.53
2017-08-17T03:40:30.217Z,100647.00
2017-08-17T03:42:57.699Z,100646.02
2017-08-17T03:45:25.227Z,100644.98
2017-08-17T03:47:52.703Z,100648.14
2017-08-17T03:50:20.155Z,100647.02
2017-08-17T03:52:47.708Z,100655.64
2017-08-17T03:55:15.264Z,100662.95
2017-08-17T03:57:42.821Z,100658.95
2017-08-17T04:00:10.280Z,100663.86
2017-08-17T04:02:37.848Z,100670.86
2017-08-17T04:05:05.347Z,100664.59
2017-08-17T04:07:32.847Z,100664.20
2017-08-17T04:10:00.312Z,100663.75
2017-08-17T04:12:27.863Z,100661.31
2017-08-17T04:14:56.159Z,100657.52
2017-08-17T04:17:23.622Z,100658.39
2017-08-17T04:19:51.157Z,100658.69
2017-08-17T04:22:18.617Z,100652.91
2017-08-17T04:24:46.083Z,100657.65
2017-08-17T04:27:13.804Z,100663.53
2017-08-17T04:29:41.282Z,100663.61
2017-08-17T04:32:08.849Z,100659.24
2017-08-17T04:34:36.319Z,100668.13
2017-08-17T04:37:03.864Z,100667.63
2017-08-17T04:39:31.329Z,100665.39
2017-08-17T04:41:58.880Z,100664.92
2017-08-17T04:44:26.337Z,100669.30
2017-08-17T04:46:53.811Z,100671.69
2017-08-17T04:49:21.259Z,100666.17
2017-08-17T04:51:48.728Z,100669.86
2017-08-17T04:54:16.264Z,100660.09
2017-08-17T04:57:10.179Z,100662.41
2017-08-17T04:59:37.628Z,100653.43
2017-08-17T05:02:05.098Z,100653.73
2017-08-17T05:04:32.611Z,100654.76
2017-08-17T05:07:00.198Z,100649.17
2017-08-17T05:09:27.708Z,100649.49
2017-08-17T05:11:55.368Z,100648.59
2017-08-17T05:14:22.839Z,100653.96
2017-08-17T05:16:50.315Z,100657.04
2017-08-17T05:19:17.918Z,100653.50
2017-08-17T05:21:45.424Z,100658.31
2017-08-17T05:24:12.993Z,100663.08
2017-08-17T05:26:40.456Z,100656.88
2017-08-17T05:29:08.354Z,100659.36
2017-08-17T05:31:35.828Z,100667.85
2017-08-17T05:34:03.299Z,100658.66
2017-08-17T05:36:30.764Z,100661.94
2017-08-17T05:38:58.243Z,100652.70
2017-08-17T05:41:25.883Z,100649.78
2017-08-17T05:43:53.451Z,100637.92
2017-08-17T05:46:20.902Z,100633.84
2017-08-17T05:48:48.371Z,100631.51
2017-08-17T05:51:15.840Z,100634.46
2017-08-17T05:53:43.733Z,100640.15
2017-08-17T05:56:11.248Z,100643.00
2017-08-17T05:58:38.807Z,100643.43
2017-08-17T06:01:06.280Z,100648.49
2017-08-17T06:03:33.820Z,100657.20
2017-08-17T06:06:02.351Z,100656.63
2017-08-17T06:08:29.807Z,100652.89
2017-08-17T06:10:57.271Z,100656.36
2017-08-17T06:13:24.771Z,100655.84
2017-08-17T06:15:52.236Z,100654.84
2017-08-17T06:18:19.785Z,100652.42
2017-08-17T06:20:47.255Z,100649.59
2017-08-17T06:23:14.704Z,100648.14
2017-08-17T06:25:42.172Z,100642.16
2017-08-17T06:28:09.713Z,100645.11
2017-08-17T06:30:37.180Z,100647.84
2017-08-17T06:33:04.625Z,100649.06
2017-08-17T06:35:32.099Z,100646.70
2017-08-17T06:37:59.591Z,100640.97
2017-08-17T06:40:27.071Z,100641.20
2017-08-17T06:42:54.560Z,100632.13
2017-08-17T06:45:22.044Z,100635.61
2017-08-17T06:47:49.671Z,100637.67
2017-08-17T06:50:17.128Z,100633.56
2017-08-17T06:52:44.598Z,100637.21
2017-08-17T06:55:12.151Z,100644.73
2017-08-17T06:57:39.860Z,100645.17
2017-08-17T07:00:07.353Z,100642.23
2017-08-17T07:02:34.827Z,100641.11
2017-08-17T07:05:02.380Z,100642.29
2017-08-17T07:07:30.061Z,100641.34
2017-08-17T07:09:57.610Z,100641.45
2017-08-17T07:12:25.088Z,100650.72
2017-08-17T07:14:52.554Z,100647.02
2017-08-17T07:17:20.032Z,100646.81
2017-08-17T07:19:47.596Z,100642.80
2017-08-17T07:22:15.096Z,100643.27
2017-08-17T07:24:42.555Z,100642.98
2017-08-17T07:27:10.112Z,100633.63
2017-08-17T07:29:37.619Z,100629.85
2017-08-17T07:32:05.091Z,100638.81
2017-08-17T07:34:32.680Z,100641.73
2017-08-17T07:37:00.235Z,100641.22
2017-08-17T07:39:27.717Z,100638.86
2017-08-17T07:41:55.255Z,100637.84
2017-08-17T07:44:22.807Z,100639.04
2017-08-17T07:46:50.264Z,100646.54
2017-08-17T07:49:17.757Z,100652.46
2017-08-17T07:51:45.280Z,100647.75
2017-08-17T07:54:12.759Z,100649.95
2017-08-17T07:56:40.295Z,100647.41
2017-08-17T07:59:08.082Z,100632.48
2017-08-17T08:01:35.580Z,100638.25
2017-08-17T08:04:03.084Z,100640.96
2017-08-17T08:06:30.551Z,100632.34
2017-08-17T08:08:58.088Z,100645.11
2017-08-17T08:11:25.555Z,100642.32
2017-08-17T08:13:53.035Z,100646.20
2017-08-17T08:16:20.564Z,100644.97
2017-08-17T08:18:48.072Z,100646.23
2017-08-17T08:21:15.531Z,100647.31
2017-08-17T08:23:43.442Z,100649.91
2017-08-17T08:26:10.917Z,100644.67
2017-08-17T08:28:38.455Z,100651.16
2017-08-17T08:31:05.935Z,100655.58
2017-08-17T08:33:33.472Z,100654.45
2017-08-17T08:36:00.947Z,100658.55
2017-08-17T08:38:28.486Z,100665.62
2017-08-17T08:40:56.236Z,100660.67
2017-08-17T08:43:23.719Z,100649.58
2017-08-17T08:45:51.268Z,100649.70
2017-08-17T08:48:18.721Z,100647.63
2017-08-17T08:50:46.222Z,100648.11
2017-08-17T08:53:13.739Z,100640.54
2017-08-17T08:55:41.296Z,100640.29
2017-08-17T08:58:08.856Z,100635.48
2017-08-17T09:00:36.416Z,100638.34
2017-08-17T09:03:03.872Z,100638.44
2017-08-17T09:05:31.347Z,100641.09
2017-08-17T09:07:58.885Z,100642.70
2017-08-17T09:10:26.450Z,100638.70
2017-08-17T09:12:54.002Z,100641.83
2017-08-17T09:15:21.487Z,100640.28
2017-08-17T09:17:49.019Z,100642.77
2017-08-17T09:20:16.512Z,100634.56
2017-08-17T09:22:44.063Z,100637.69
2017-08-17T09:25:15.441Z,100636.60
2017-08-17T09:27:43.012Z,100635.68
2017-08-17T09:30:15.161Z,100630.48
2017-08-17T09:32:42.878Z,100631.80
2017-08-17T09:35:10.327Z,100634.00
2017-08-17T09:37:37.803Z,100622.16
2017-08-17T09:40:05.388Z,100619.55
2017-08-17T09:42:32.903Z,100614.73
2017-08-17T09:45:00.360Z,100613.74
2017-08-17T09:47:28.496Z,100606.13
2017-08-17T09:49:56.345Z,100603.73
2017-08-17T09:52:24.110Z,100600.13
2017-08-17T09:54:51.703Z,100589.05
2017-08-17T09:57:19.271Z,100585.19
2017-08-17T09:59:46.845Z,100580.67
2017-08-17T10:02:14.394Z,100579.87
2017-08-17T10:04:41.953Z,100574.09
2017-08-17T10:07:09.403Z,100572.60
2017-08-17T10:09:36.880Z,100570.71
2017-08-17T10:12:04.425Z,100564.70
2017-08-17T10:14:31.980Z,100560.59
2017-08-17T10:16:59.431Z,100551.70
2017-08-17T10:19:26.997Z,100550.25
2017-08-17T10:21:54.442Z,100549.63
2017-08-17T10:24:22.070Z,100552.23
2017-08-17T10:26:51.213Z,100551.25
2017-08-17T10:29:18.719Z,100546.55
2017-08-17T10:31:46.774Z,100544.05
2017-08-17T10:34:14.964Z,100542.91
2017-08-17T10:36:42.599Z,100543.94
2017-08-17T10:39:11.157Z,100538.84
2017-08-17T10:41:38.635Z,100537.98
2017-08-17T10:44:06.635Z,100539.84
2017-08-17T10:46:34.335Z,100541.99
2017-08-17T10:49:02.654Z,100543.77
2017-08-17T10:51:30.487Z,100536.95
2017-08-17T10:53:58.279Z,100533.23
2017-08-17T10:56:26.168Z,100537.52
2017-08-17T10:58:54.398Z,100543.70
2017-08-17T11:01:22.052Z,100547.84
2017-08-17T11:03:49.917Z,100534.72
2017-08-17T11:06:17.938Z,100534.73
2017-08-17T11:08:46.015Z,100533.52
2017-08-17T11:11:13.640Z,100537.55
2017-08-17T11:13:41.997Z,100526.80
2017-08-17T11:16:09.862Z,100532.37
2017-08-17T11:18:37.987Z,100526.77
2017-08-17T11:21:05.854Z,100525.06
2017-08-17T11:23:33.514Z,100533.42
2017-08-17T11:26:01.808Z,100526.58
2017-08-17T11:28:32.241Z,100523.98
2017-08-17T11:30:59.925Z,100531.73
2017-08-17T11:33:27.700Z,100530.23
2017-08-17T11:35:55.862Z,100524.11
2017-08-17T11:38:25.193Z,100517.08
2017-08-17T11:40:53.007Z,100517.78
2017-08-17T11:43:21.400Z,100527.20
2017-08-17T11:45:48.867Z,100512.48
2017-08-17T11:48:16.994Z,100518.33
2017-08-17T11:50:44.707Z,100514.17
2017-08-17T11:53:14.156Z,100515.91
2017-08-17T11:55:41.838Z,100503.38
2017-08-17T11:58:09.783Z,100510.12
2017-08-17T12:00:37.243Z,100503.68
2017-08-17T12:03:06.008Z,100510.17
2017-08-17T12:05:35.250Z,100515.13
2017-08-17T12:08:03.976Z,100513.69
2017-08-17T12:10:32.883Z,100503.95
2017-08-17T12:13:00.342Z,100517.78
2017-08-17T12:15:27.859Z,100509.15
2017-08-17T12:17:55.302Z,100502.95
2017-08-17T12:20:22.783Z,100505.17
2017-08-17T12:22:50.345Z,100499.98
2017-08-17T12:25:17.799Z,100502.22
2017-08-17T12:27:45.263Z,100499.50
2017-08-17T12:30:12.804Z,100490.48
2017-08-17T12:32:40.272Z,100481.02
2017-08-17T12:35:07.828Z,100474.45
2017-08-17T12:37:35.376Z,100476.27
2017-08-17T12:40:02.819Z,100475.80
2017-08-17T12:42:30.392Z,100474.44
2017-08-17T12:44:58.076Z,100466.55
2017-08-17T12:47:25.564Z,100462.88
2017-08-17T12:49:53.010Z,100468.05
2017-08-17T12:52:20.525Z,100461.59
2017-08-17T12:54:48.088Z,100464.39
2017-08-17T12:57:15.554Z,100472.95
2017-08-17T12:59:43.131Z,100478.22
2017-08-17T13:02:10.589Z,100472.51
2017-08-17T13:04:38.075Z,100462.66
2017-08-17T13:07:05.580Z,100460.74
2017-08-17T13:09:33.056Z,100464.03
2017-08-17T13:12:00.518Z,100457.19
2017-08-17T13:14:27.988Z,100449.53
2017-08-17T13:16:55.512Z,100448.08
2017-08-17T13:19:23.015Z,100452.66
2017-08-17T13:21:50.467Z,100449.12
2017-08-17T13:24:17.974Z,100455.41
2017-08-17T13:26:45.448Z,100459.22
2017-08-17T13:29:13.000Z,100467.08
2017-08-17T13:31:40.550Z,100473.66
2017-08-17T13:34:08.003Z,100476.69
2017-08-17T13:36:35.563Z,100480.06
2017-08-17T13:39:03.016Z,100477.91
2017-08-17T13:41:30.579Z,100482.45
2017-08-17T13:43:58.027Z,100473.09
2017-08-17T13:46:25.496Z,100477.63
2017-08-17T13:48:53.355Z,100480.30
2017-08-17T13:51:20.823Z,100470.92
2017-08-17T13:53:48.369Z,100474.54
2017-08-17T13:56:15.923Z,100460.77
2017-08-17T13:58:43.384Z,100459.36
2017-08-17T14:01:11.454Z,100471.35
2017-08-17T14:03:39.013Z,100464.13
2017-08-17T14:06:06.456Z,100464.67
2017-08-17T14:08:34.063Z,100458.00
2017-08-17T14:11:01.515Z,100453.63
2017-08-17T14:13:29.054Z,100459.28
2017-08-17T14:15:56.511Z,100462.08
2017-08-17T14:18:24.050Z,100461.83
2017-08-17T14:20:51.532Z,100452.44
2017-08-17T14:23:18.999Z,100447.72
2017-08-17T14:25:46.540Z,100448.84
2017-08-17T14:28:14.016Z,100448.00
2017-08-17T14:30:41.471Z,100444.41
2017-08-17T14:33:08.919Z,100433.05
2017-08-17T14:35:36.463Z,100433.12
2017-08-17T14:38:03.907Z,100433.09
2017-08-17T14:40:31.383Z,100443.05
2017-08-17T14:42:58.932Z,100449.08
2017-08-17T14:45:26.404Z,100448.80
2017-08-17T14:47:54.204Z,100449.37
2017-08-17T14:50:21.723Z,100460.41
2017-08-17T14:52:49.299Z,100454.45
2017-08-17T14:55:16.824Z,100463.15
2017-08-17T14:57:44.271Z,100462.47
2017-08-17T15:00:11.744Z,100470.94
2017-08-17T15:02:39.204Z,100470.00
2017-08-17T15:05:06.748Z,100471.36
2017-08-17T15:07:34.215Z,100473.41
2017-08-17T15:10:01.691Z,100464.48
2017-08-17T15:12:29.143Z,100468.52
2017-08-17T15:14:56.610Z,100475.09
2017-08-17T15:17:24.135Z,100477.27
2017-08-17T15:19:51.628Z,100480.45
2017-08-17T15:22:19.164Z,100479.91
2017-08-17T15:24:46.714Z,100484.52
2017-08-17T15:27:14.220Z,100490.25
2017-08-17T15:29:41.672Z,100494.84
2017-08-17T15:32:09.186Z,100489.55
2017-08-17T15:34:36.631Z,100483.92
2017-08-17T15:37:04.098Z,100482.21
2017-08-17T15:39:31.588Z,100479.41
2017-08-17T15:41:59.115Z,100474.52
2017-08-17T15:44:26.564Z,100481.63
2017-08-17T15:46:54.044Z,100478.15
2017-08-17T15:49:21.592Z,100477.48
2017-08-17T15:51:49.059Z,100481.68
2017-08-17T15:54:17.396Z,100483.92
2017-08-17T15:56:44.991Z,100480.63
2017-08-17T15:59:12.563Z,100477.04
2017-08-17T16:01:40.096Z,100470.94
2017-08-17T16:04:07.551Z,100465.33
2017-08-17T16:06:35.111Z,100464.47
2017-08-17T16:09:02.566Z,100474.23
2017-08-17T16:11:30.084Z,100470.38
2017-08-17T16:13:57.636Z,100455.38
2017-08-17T16:16:25.103Z,100462.55
2017-08-17T16:18:52.587Z,100457.81
2017-08-17T16:21:20.049Z,100454.79
2017-08-17T16:23:47.523Z,100464.55
2017-08-17T16:26:15.050Z,100464.20
2017-08-17T16:28:42.691Z,100464.32
2017-08-17T16:31:10.180Z,100458.95
2017-08-17T16:33:37.747Z,100463.17
2017-08-17T16:36:05.210Z,100459.59
2017-08-17T16:38:32.695Z,100452.89
2017-08-17T16:41:00.231Z,100454.66
2017-08-17T16:43:27.718Z,100453.75
2017-08-17T16:45:55.259Z,100457.58
2017-08-17T16:48:22.776Z,100456.43
2017-08-17T16:50:50.262Z,100458.55
2017-08-17T16:53:18.034Z,100463.81
2017-08-17T16:55:45.528Z,100460.30
2017-08-17T16:58:12.974Z,100455.23
2017-08-17T17:00:40.458Z,100454.64
2017-08-17T17:03:07.924Z,100457.00
2017-08-17T17:05:35.499Z,100451.52
2017-08-17T17:08:03.004Z,100453.71
2017-08-17T17:10:30.511Z,100451.48
2017-08-17T17:12:57.986Z,100463.28
2017-08-17T17:15:25.528Z,100456.78
2017-08-17T17:17:52.981Z,100453.05
2017-08-17T17:20:20.451Z,100453.34
2017-08-17T17:22:47.999Z,100450.75
2017-08-17T17:25:15.472Z,100450.66
2017-08-17T17:27:43.028Z,100451.59
2017-08-17T17:30:10.489Z,100447.16
2017-08-17T17:32:37.935Z,100444.98
2017-08-17T17:35:05.407Z,100443.46
2017-08-17T17:37:33.156Z,100445.62
2017-08-17T17:40:00.631Z,100441.66
2017-08-17T17:42:28.091Z,100445.31
2017-08-17T17:44:55.549Z,100443.42
2017-08-17T17:47:23.020Z,100442.34
2017-08-17T17:49:50.491Z,100439.91
2017-08-17T17:52:17.962Z,100450.14
2017-08-17T17:54:45.440Z,100449.59
2017-08-17T17:57:12.916Z,100457.79
2017-08-17T17:59:40.456Z,100454.71
2017-08-17T18:02:07.992Z,100454.45
2017-08-17T18:04:35.447Z,100458.36
2017-08-17T18:07:02.913Z,100450.08
2017-08-17T18:09:30.393Z,100449.77
2017-08-17T18:11:58.098Z,100455.16
2017-08-17T18:14:25.736Z,100459.52
2017-08-17T18:16:53.232Z,100467.90
2017-08-17T18:19:20.774Z,100473.77
2017-08-17T18:21:48.240Z,100467.97
2017-08-17T18:24:15.704Z,100475.06
2017-08-17T18:26:43.408Z,100469.19
2017-08-17T18:29:10.915Z,100475.91
2017-08-17T18:31:38.373Z,100471.59
2017-08-17T18:34:05.878Z,100466.88
2017-08-17T18:36:33.432Z,100465.94
2017-08-17T18:39:01.700Z,100466.20
2017-08-17T18:41:29.159Z,100470.49
2017-08-17T18:43:56.630Z,100477.89
2017-08-17T18:46:24.096Z,100473.55
2017-08-17T18:48:51.568Z,100482.69
2017-08-17T18:51:19.022Z,100491.08
2017-08-17T18:53:46.525Z,100490.08
2017-08-17T18:56:13.976Z,100492.95
2017-08-17T18:58:41.465Z,100486.84
2017-08-17T19:01:09.012Z,100486.03
2017-08-17T19:03:36.480Z,100495.99
2017-08-17T19:06:03.940Z,100488.59
2017-08-17T19:08:31.404Z,100495.52
2017-08-17T19:10:58.946Z,100487.66
2017-08-17T19:13:26.391Z,100497.87
2017-08-17T19:15:53.857Z,100492.73
2017-08-17T19:18:21.308Z,100496.86
2017-08-17T19:20:48.770Z,100491.01
2017-08-17T19:23:16.235Z,100492.97
2017-08-17T19:25:43.703Z,100487.09
2017-08-17T19:28:11.250Z,100489.86
2017-08-17T19:30:38.736Z,100489.28
2017-08-17T19:33:06.187Z,100497.76
2017-08-17T19:35:33.664Z,100494.77
2017-08-17T19:38:01.173Z,100486.69
2017-08-17T19:40:28.661Z,100486.81
2017-08-17T19:42:56.188Z,100490.03
2017-08-17T19:45:23.748Z,100479.57
2017-08-17T19:47:51.190Z,100484.28
2017-08-17T19:50:18.659Z,100479.12
2017-08-17T19:52:46.107Z,100477.88
2017-08-17T19:55:13.854Z,100472.16
2017-08-17T19:57:41.327Z,100475.16
2017-08-17T20:00:08.783Z,100478.97
2017-08-17T20:02:36.343Z,100475.06
2017-08-17T20:05:03.791Z,100480.56
2017-08-17T20:07:31.410Z,100475.00
2017-08-17T20:09:58.945Z,100474.67
2017-08-17T20:12:26.730Z,100472.44
2017-08-17T20:14:54.187Z,100474.97
2017-08-17T20:17:21.759Z,100480.31
2017-08-17T20:19:49.259Z,100480.13
2017-08-17T20:22:16.732Z,100483.98
2017-08-17T20:24:44.182Z,100482.91
2017-08-17T20:27:11.660Z,100477.77
2017-08-17T20:29:39.112Z,100469.48
2017-08-17T20:32:06.637Z,100480.61
2017-08-17T20:34:34.098Z,100482.47
2017-08-17T20:37:01.600Z,100473.91
2017-08-17T20:39:29.493Z,100470.80
2017-08-17T20:41:57.284Z,100471.44
2017-08-17T20:44:24.740Z,100481.00
2017-08-17T20:46:52.200Z,100484.50
2017-08-17T20:49:19.761Z,100490.30
2017-08-17T20:51:47.317Z,100489.77
2017-08-17T20:54:14.784Z,100485.17
2017-08-17T20:56:42.332Z,100494.04
2017-08-17T20:59:09.795Z,100476.66
2017-08-17T21:01:37.255Z,100475.28
2017-08-17T21:04:06.072Z,100474.17
2017-08-17T21:06:33.854Z,100480.31
2017-08-17T21:09:01.904Z,100473.38
2017-08-17T21:11:29.469Z,100467.94
2017-08-17T21:13:56.979Z,100472.52
2017-08-17T21:16:24.440Z,100467.58
2017-08-17T21:18:51.913Z,100475.41
2017-08-17T21:21:19.456Z,100481.59
2017-08-17T21:23:46.927Z,100476.98
2017-08-17T21:26:14.486Z,100474.30
2017-08-17T21:28:41.928Z,100475.50
2017-08-17T21:31:09.403Z,100484.72
2017-08-17T21:33:36.847Z,100486.82
2017-08-17T21:36:04.320Z,100489.04
2017-08-17T21:38:32.198Z,100489.66
2017-08-17T21:40:59.696Z,100489.37
2017-08-17T21:43:27.143Z,100493.16
2017-08-17T21:45:54.631Z,100490.12
2017-08-17T21:48:22.094Z,100490.39
2017-08-17T21:50:49.845Z,100491.06
2017-08-17T21:53:17.292Z,100485.14
2017-08-17T21:55:44.767Z,100485.00
2017-08-17T21:58:12.326Z,100483.34
2017-08-17T22:00:39.796Z,100485.11
2017-08-17T22:03:07.341Z,100481.45
2017-08-17T22:05:34.831Z,100475.11
2017-08-17T22:08:02.284Z,100473.89
2017-08-17T22:10:29.767Z,100471.82
2017-08-17T22:12:57.231Z,100477.05
2017-08-17T22:15:24.680Z,100473.09
2017-08-17T22:17:52.159Z,100474.89
2017-08-17T22:20:19.637Z,100472.16
2017-08-17T22:22:47.105Z,100477.13
2017-08-17T22:25:14.662Z,100478.87
2017-08-17T22:27:42.135Z,100481.02
2017-08-17T22:30:09.591Z,100483.48
2017-08-17T22:32:37.073Z,100487.28
2017-08-17T22:35:04.584Z,100479.81
2017-08-17T22:37:32.046Z,100475.05
2017-08-17T22:39:59.596Z,100483.45
2017-08-17T22:42:27.257Z,100482.27
2017-08-17T22:44:54.703Z,100481.14
2017-08-17T22:47:22.171Z,100481.87
2017-08-17T22:49:49.728Z,100485.63
2017-08-17T22:52:17.175Z,100483.09
2017-08-17T22:54:45.205Z,100478.71
2017-08-17T22:57:12.714Z,100472.50
2017-08-17T22:59:40.271Z,100473.02
2017-08-17T23:02:07.883Z,100478.20
2017-08-17T23:04:35.390Z,100478.05
2017-08-17T23:07:02.959Z,100478.83
2017-08-17T23:09:30.427Z,100483.83
2017-08-17T23:11:57.964Z,100481.63
2017-08-17T23:14:25.434Z,100473.85
2017-08-17T23:16:52.975Z,100478.86
2017-08-17T23:19:20.539Z,100474.77
2017-08-17T23:21:47.992Z,100478.48
2017-08-17T23:24:15.564Z,100478.11
2017-08-17T23:26:43.020Z,100473.20
2017-08-17T23:29:10.491Z,100471.39
2017-08-17T23:31:37.950Z,100468.09
2017-08-17T23:34:05.460Z,100459.27
2017-08-17T23:36:32.917Z,100454.19
2017-08-17T23:39:00.360Z,100444.20
2017-08-17T23:41:27.828Z,100440.34
2017-08-17T23:43:55.274Z,100438.63
2017-08-17T23:46:22.771Z,100444.94
2017-08-17T23:48:50.219Z,100445.60
2017-08-17T23:51:17.683Z,100445.22
2017-08-17T23:53:45.156Z,100450.96
2017-08-17T23:56:12.618Z,100449.77
2017-08-17T23:58:40.076Z,100442.72
